Cherry Valley, Illinois
Current Conditions -  °F | °C
As of 7:07 AM on Wednesday 26 Nov 2014 (Local Time) from KRFD Reporting Station
Haze Haze  
Wind Chill: 10°   Ceiling: 1300
Heat Index: 17°   Visibility: 2mi
Dew Point: 13°   Wind: 5mph
Humidity: 84%   Direction: 70°ENE
Pressure: 30.16"   Gusts: NA
Location:  42.23°N, 88.95°W
Report Text: KRFD 261307Z 07004KT 2SM BR FEW003 BKN013 M08/M11 A3016 RMK AO2 T10831106
Loading
Personal Weather Stations






























Interactive Weather Map New forecast layout! Learn more

10-Day Weather Forecast

Advertisements
Track Severe Weather on mobile